Time;durP1;ratioP1;P1;durP2;ratioP2;P2;SDS_P1;SDS_P2;PMS_P1;PMS_P2;Temp;Humidity;BMP_temperature;BMP_pressure;BME280_temperature;BME280_humidity;BME280_pressure;Samples;Min_cycle;Max_cycle;Signal;HPM_P1;HPM_P2
2022/06/14 00:01:56;;;;;;;11.90;8.35;;;;;;;11.06;86.21;100311.89;1737432;81;25489;-69
2022/06/14 00:04:40;;;;;;;14.03;7.87;;;;;;;11.03;86.36;100305.20;1773077;80;25761;-69
2022/06/14 00:07:25;;;;;;;10.25;7.42;;;;;;;10.99;86.84;100305.57;1761578;81;25718;-68
2022/06/14 00:09:51;;;;;;;9.60;7.72;;;;;;;10.96;86.83;100310.24;1773064;80;25554;-68
2022/06/14 00:12:17;;;;;;;10.68;7.78;;;;;;;10.92;86.74;100306.58;1761681;81;27524;-69
2022/06/14 00:14:43;;;;;;;9.98;6.42;;;;;;;10.90;86.72;100306.66;1793028;80;26272;-69
2022/06/14 00:17:09;;;;;;;14.83;7.92;;;;;;;10.88;86.97;100311.56;1761706;81;25690;-68
2022/06/14 00:19:35;;;;;;;9.10;7.35;;;;;;;10.84;87.24;100305.44;1792951;80;25583;-69
2022/06/14 00:22:03;;;;;;;9.60;7.08;;;;;;;10.79;87.00;100312.30;1761286;81;32772;-69
2022/06/14 00:24:30;;;;;;;12.75;7.33;;;;;;;10.78;87.63;100312.64;1776040;80;28216;-69
2022/06/14 00:26:56;;;;;;;11.18;7.70;;;;;;;10.76;87.61;100311.59;1755888;81;25394;-69
2022/06/14 00:29:22;;;;;;;10.40;7.55;;;;;;;10.74;87.60;100311.08;1770076;81;25631;-69
2022/06/14 00:31:48;;;;;;;9.78;7.53;;;;;;;10.69;87.56;100305.80;1756010;81;26992;-69
2022/06/14 00:34:14;;;;;;;20.52;8.98;;;;;;;10.69;87.98;100315.27;1776085;80;33045;-69
2022/06/14 00:36:46;;;;;;;10.43;6.97;;;;;;;10.68;87.94;100316.95;1776089;80;27549;-69
2022/06/14 00:39:12;;;;;;;12.80;7.33;;;;;;;10.67;88.11;100314.78;1774813;80;25785;-69
2022/06/14 00:41:46;;;;;;;9.23;7.30;;;;;;;10.65;88.12;100309.68;1776095;79;30275;-69
2022/06/14 00:44:20;;;;;;;10.88;6.72;;;;;;;10.63;88.29;100309.20;1775879;80;26310;-68
2022/06/14 00:47:06;;;;;;;11.68;7.28;;;;;;;10.61;88.14;100312.77;1776129;79;25550;-68
2022/06/14 00:49:52;;;;;;;11.20;7.47;;;;;;;10.60;88.31;100311.16;1776151;80;25913;-69
2022/06/14 00:52:33;;;;;;;13.68;7.40;;;;;;;10.59;88.45;100310.11;1755850;81;25393;-68
2022/06/14 00:55:07;;;;;;;9.35;7.00;;;;;;;10.57;88.80;100310.45;1755112;81;25604;-68
2022/06/14 00:57:41;;;;;;;12.63;6.97;;;;;;;10.58;88.66;100313.94;1745596;80;25693;-68
2022/06/14 01:00:18;;;;;;;8.45;6.40;;;;;;;10.58;88.66;100312.59;1756095;81;25622;-69
2022/06/14 01:02:55;;;;;;;11.45;6.53;;;;;;;10.58;88.85;100311.23;1776078;80;27317;-69
2022/06/14 01:08:23;;;;;;;12.10;6.22;;;;;;;10.56;88.72;100314.80;1756038;81;25471;-69
2022/06/14 01:10:50;;;;;;;10.90;6.70;;;;;;;10.54;88.81;100311.06;1776180;80;27650;-68
2022/06/14 01:13:19;;;;;;;15.78;6.15;;;;;;;10.53;88.73;100317.56;1776196;80;25580;-69
2022/06/14 01:15:49;;;;;;;14.15;6.28;;;;;;;10.51;88.79;100315.72;1756226;81;28247;-68
2022/06/14 01:18:17;;;;;;;9.43;5.05;;;;;;;10.51;88.70;100326.54;1776143;80;25373;-69
2022/06/14 01:20:44;;;;;;;10.05;5.33;;;;;;;10.49;88.48;100327.94;1776193;80;25670;-69
2022/06/14 01:23:15;;;;;;;9.70;4.42;;;;;;;10.49;88.60;100322.53;1776103;79;25575;-69
2022/06/14 01:25:49;;;;;;;9.85;5.05;;;;;;;10.48;88.64;100332.56;1776267;79;25605;-69
2022/06/14 01:28:19;;;;;;;10.05;5.10;;;;;;;10.46;88.58;100328.80;1776182;79;27472;-67
2022/06/14 01:30:48;;;;;;;;;;;;;;;10.46;88.71;100332.07;1778742;80;25829;-68
2022/06/14 01:33:32;;;;;;;8.88;4.22;;;;;;;10.45;88.50;100335.87;1776418;80;32557;-68
2022/06/14 01:36:04;;;;;;;9.10;4.97;;;;;;;10.40;88.38;100336.81;1776215;80;25657;-70
2022/06/14 01:38:31;;;;;;;8.98;4.72;;;;;;;10.40;88.39;100337.34;1776097;80;25676;-67
2022/06/14 01:41:31;;;;;;;11.25;4.45;;;;;;;10.38;88.42;100341.70;1776205;80;27657;-67
2022/06/14 01:44:29;;;;;;;8.68;4.58;;;;;;;10.37;88.46;100340.12;1755885;81;25748;-69
2022/06/14 01:47:25;;;;;;;7.95;5.12;;;;;;;10.35;88.39;100338.28;1776214;80;25546;-70
2022/06/14 01:53:41;;;;;;;12.50;7.08;;;;;;;10.29;88.07;100344.88;1671463;85;25708;-69
2022/06/14 01:56:31;;;;;;;13.35;5.62;;;;;;;10.24;88.22;100344.42;1699439;84;27501;-68
2022/06/14 01:59:23;;;;;;;8.90;4.92;;;;;;;10.23;88.04;100355.54;1699423;84;26289;-68
2022/06/14 02:02:04;;;;;;;8.73;6.67;;;;;;;10.20;88.16;100352.91;1689917;84;25584;-68
2022/06/14 02:04:48;;;;;;;9.58;5.95;;;;;;;10.16;88.24;100361.36;1689870;84;25704;-69
2022/06/14 02:07:38;;;;;;;10.15;4.72;;;;;;;10.14;87.96;100362.22;1672130;85;25520;-69
2022/06/14 02:10:10;;;;;;;7.20;5.12;;;;;;;10.10;88.06;100359.89;1660653;86;27616;-69
2022/06/14 02:12:57;;;;;;;9.25;5.30;;;;;;;10.06;88.05;100357.53;1649821;85;25826;-70
2022/06/14 02:15:40;;;;;;;11.08;5.78;;;;;;;10.03;88.20;100352.20;1689984;84;25735;-70
2022/06/14 02:18:33;;;;;;;10.03;5.45;;;;;;;10.01;88.36;100350.36;1689851;84;26169;-70
2022/06/14 02:21:07;;;;;;;6.40;4.60;;;;;;;9.97;87.89;100363.41;1682772;83;25739;-67
2022/06/14 02:23:42;;;;;;;8.30;5.83;;;;;;;9.94;88.05;100363.45;1673517;84;28355;-69
2022/06/14 02:26:22;;;;;;;10.88;5.08;;;;;;;9.93;87.96;100362.41;1695581;84;25939;-67
2022/06/14 02:28:57;;;;;;;8.50;5.00;;;;;;;9.90;88.23;100365.97;1668237;86;25797;-68
2022/06/14 02:31:34;;;;;;;6.33;4.50;;;;;;;9.87;87.98;100363.86;1693039;84;25549;-69
2022/06/14 02:34:06;;;;;;;8.95;4.92;;;;;;;9.85;88.01;100367.98;1712109;83;25488;-70
2022/06/14 02:36:55;;;;;;;7.42;4.55;;;;;;;9.83;87.92;100368.84;1713660;83;27449;-68
2022/06/14 02:39:27;;;;;;;6.53;4.50;;;;;;;9.82;88.19;100373.98;1712543;83;25635;-67
2022/06/14 02:42:14;;;;;;;7.92;4.37;;;;;;;9.80;88.02;100372.94;1713677;83;25647;-71
2022/06/14 02:45:03;;;;;;;8.45;4.80;;;;;;;9.78;88.15;100379.20;1711389;83;25627;-68
2022/06/14 02:47:44;;;;;;;7.62;4.50;;;;;;;9.76;88.30;100378.70;1671261;83;25813;-69
2022/06/14 02:50:49;;;;;;;7.80;4.95;;;;;;;9.73;88.35;100377.95;1657008;86;28271;-70
2022/06/14 02:53:22;;;;;;;7.08;4.28;;;;;;;9.71;88.41;100375.55;1657135;86;25563;-70
2022/06/14 02:56:10;;;;;;;9.35;5.17;;;;;;;9.71;88.76;100375.55;1656477;86;25669;-68
2022/06/14 02:59:15;;;;;;;8.38;4.53;;;;;;;9.71;88.55;100380.95;1657196;86;25531;-68
2022/06/14 03:02:23;;;;;;;4.85;4.28;;;;;;;9.71;88.54;100380.16;1657226;86;25711;-70
2022/06/14 03:05:29;;;;;;;7.17;4.70;;;;;;;9.70;88.69;100379.36;1668630;82;25785;-69
2022/06/14 03:08:19;;;;;;;8.13;4.92;;;;;;;9.71;88.64;100378.80;1761589;81;25516;-69
2022/06/14 03:11:30;;;;;;;8.40;4.83;;;;;;;9.71;88.63;100377.45;1731492;82;25544;-70
2022/06/14 03:14:32;;;;;;;10.13;5.08;;;;;;;9.68;88.73;100378.05;1761625;81;25776;-70
2022/06/14 03:17:45;;;;;;;8.05;4.75;;;;;;;9.69;89.11;100381.01;1731417;82;25652;-68
2022/06/14 03:20:54;;;;;;;8.13;5.40;;;;;;;9.69;89.25;100381.01;1742424;82;26474;-67
2022/06/14 03:23:59;;;;;;;6.45;4.90;;;;;;;9.71;89.37;100384.20;1730030;82;25543;-68
2022/06/14 03:26:58;;;;;;;8.73;5.03;;;;;;;9.73;89.53;100392.80;1745325;82;25582;-68
2022/06/14 03:29:53;;;;;;;10.82;5.22;;;;;;;9.77;89.67;100394.34;1683323;85;26255;-67
2022/06/14 03:32:30;;;;;;;12.30;5.40;;;;;;;9.79;89.79;100393.48;1689807;84;25803;-68
2022/06/14 03:35:02;;;;;;;10.30;5.28;;;;;;;9.82;90.09;100399.09;1689886;84;27551;-68
2022/06/14 03:37:28;;;;;;;14.15;5.85;;;;;;;9.86;90.13;100404.16;1689226;84;25746;-68
2022/06/14 03:40:03;;;;;;;9.55;5.37;;;;;;;9.87;90.27;100403.59;1689877;84;25675;-69
2022/06/14 03:42:29;;;;;;;11.80;5.17;;;;;;;9.92;90.51;100411.60;1689459;84;25682;-68
2022/06/14 03:44:58;;;;;;;10.00;5.60;;;;;;;9.95;90.57;100400.20;1689888;84;25638;-68
2022/06/14 03:47:27;;;;;;;11.40;6.05;;;;;;;10.00;90.65;100408.20;1689798;84;27492;-67
2022/06/14 03:50:10;;;;;;;13.85;5.90;;;;;;;10.07;91.28;100410.49;1689943;84;26011;-68
2022/06/14 03:52:59;;;;;;;10.13;5.90;;;;;;;10.12;91.33;100405.54;1689912;84;25693;-68
2022/06/14 03:55:36;;;;;;;10.78;5.45;;;;;;;10.18;91.47;100409.72;1690182;84;26268;-69
2022/06/14 03:58:22;;;;;;;22.55;6.75;;;;;;;10.25;91.60;100409.56;1690017;84;25622;-69
2022/06/14 04:01:19;;;;;;;16.48;6.55;;;;;;;10.31;91.67;100413.51;1688747;84;27487;-68
2022/06/14 04:04:13;;;;;;;13.20;6.50;;;;;;;10.37;91.89;100414.48;1689772;84;25583;-68
2022/06/14 04:07:15;;;;;;;10.28;5.40;;;;;;;10.47;92.42;100417.48;1727968;82;25784;-69
2022/06/14 04:09:56;;;;;;;13.50;5.83;;;;;;;10.56;92.35;100423.78;1745534;82;25812;-68
2022/06/14 04:12:43;;;;;;;13.38;5.40;;;;;;;10.63;92.00;100424.16;1744791;82;25657;-69
2022/06/14 04:15:36;;;;;;;9.10;5.08;;;;;;;10.71;92.05;100425.88;1745649;82;27531;-67
2022/06/14 04:21:12;;;;;;;10.05;5.22;;;;;;;10.86;92.09;100430.92;1726016;83;25429;-68
2022/06/14 04:23:55;;;;;;;10.15;5.40;;;;;;;10.93;92.19;100423.73;1739381;82;25701;-69
2022/06/14 04:26:41;;;;;;;8.45;4.70;;;;;;;11.02;92.36;100428.67;1725773;83;25662;-70
2022/06/14 04:29:31;;;;;;;8.80;4.90;;;;;;;11.11;92.21;100422.74;1739551;82;28889;-71
2022/06/14 04:32:18;;;;;;;12.85;4.60;;;;;;;11.19;91.99;100426.63;1725309;83;25559;-69
2022/06/14 04:34:50;;;;;;;7.67;4.08;;;;;;;11.27;92.23;100426.41;1739555;82;25475;-68
2022/06/14 04:37:31;;;;;;;11.97;4.17;;;;;;;11.34;92.28;100426.77;1725992;83;26191;-69
2022/06/14 04:40:09;;;;;;;10.40;5.25;;;;;;;11.42;92.04;100428.73;1739621;82;25729;-69
2022/06/14 04:42:49;;;;;;;10.05;4.30;;;;;;;11.49;91.64;100429.10;1725812;83;27470;-68
2022/06/14 04:45:32;;;;;;;5.15;3.70;;;;;;;11.55;91.48;100421.06;1728583;82;25755;-68
2022/06/14 04:48:10;;;;;;;6.90;3.75;;;;;;;11.64;91.53;100433.86;1726107;83;25644;-69
2022/06/14 04:50:47;;;;;;;7.45;3.70;;;;;;;11.70;91.19;100434.77;1745462;81;25652;-69
2022/06/14 04:53:30;;;;;;;8.05;3.40;;;;;;;11.77;90.40;100433.75;1726191;83;25242;-68
2022/06/14 04:56:05;;;;;;;6.78;3.80;;;;;;;11.84;90.07;100431.15;1745389;82;27753;-69
2022/06/14 04:58:39;;;;;;;6.72;3.65;;;;;;;11.91;90.18;100426.88;1725391;83;25696;-69
2022/06/14 05:01:16;;;;;;;11.73;3.85;;;;;;;11.99;90.37;100430.75;1745451;81;25686;-69
2022/06/14 05:03:55;;;;;;;9.73;4.03;;;;;;;12.08;90.30;100441.61;1724584;83;25589;-68
2022/06/14 05:06:38;;;;;;;9.15;4.28;;;;;;;12.12;89.91;100433.89;1739037;82;25422;-68
2022/06/14 05:09:16;;;;;;;11.33;4.35;;;;;;;12.20;89.94;100439.64;1738412;82;28177;-68
2022/06/14 05:11:59;;;;;;;7.20;3.98;;;;;;;12.28;89.03;100433.44;1725916;83;25648;-70
2022/06/14 05:14:37;;;;;;;6.28;3.90;;;;;;;12.35;88.88;100439.19;1745372;82;25429;-70
2022/06/14 05:17:33;;;;;;;10.72;3.85;;;;;;;12.42;89.04;100436.80;1744478;82;26165;-69
2022/06/14 05:20:21;;;;;;;7.03;3.55;;;;;;;12.48;88.53;100434.18;1726192;83;25418;-70
2022/06/14 05:23:10;;;;;;;7.20;3.40;;;;;;;12.57;88.33;100443.68;1724482;83;27506;-69
2022/06/14 05:26:05;;;;;;;12.70;4.30;;;;;;;12.67;88.77;100442.00;1745214;82;25603;-69
2022/06/14 05:28:58;;;;;;;5.90;3.30;;;;;;;12.84;88.28;100437.14;1726050;83;25454;-71
2022/06/14 05:32:06;;;;;;;3.45;3.02;;;;;;;12.99;88.00;100430.42;1745387;82;25698;-70
2022/06/14 05:35:00;;;;;;;10.18;3.40;;;;;;;13.14;87.02;100440.53;1725994;83;25661;-69
2022/06/14 05:37:35;;;;;;;9.40;3.90;;;;;;;13.27;86.56;100435.47;1724480;83;29621;-71
2022/06/14 05:40:19;;;;;;;8.70;4.10;;;;;;;13.43;86.53;100437.94;1745047;82;25791;-71
2022/06/14 05:42:50;;;;;;;8.53;3.70;;;;;;;13.58;86.47;100431.16;1717917;83;25842;-68
2022/06/14 05:45:22;;;;;;;4.50;3.55;;;;;;;13.75;85.46;100437.08;1744811;82;25476;-69
2022/06/14 05:47:59;;;;;;;5.15;3.80;;;;;;;13.87;85.05;100438.33;1745256;82;25629;-69
2022/06/14 05:50:33;;;;;;;4.78;3.37;;;;;;;13.98;84.54;100436.27;1745305;82;27382;-69
2022/06/14 05:53:19;;;;;;;6.45;3.90;;;;;;;14.10;83.53;100446.44;1745067;82;27033;-69
2022/06/14 05:55:56;;;;;;;6.25;3.77;;;;;;;14.16;82.75;100442.39;1745466;81;25465;-69
2022/06/14 05:58:33;;;;;;;5.70;3.95;;;;;;;14.27;82.54;100446.08;1725971;83;26176;-70
2022/06/14 06:01:17;;;;;;;8.30;4.50;;;;;;;14.36;82.72;100444.91;1724494;83;25682;-70
2022/06/14 06:03:52;;;;;;;9.40;4.15;;;;;;;14.48;82.25;100448.84;1745417;82;27523;-70
2022/06/14 06:06:38;;;;;;;4.70;3.67;;;;;;;14.59;81.61;100447.33;1725930;82;25724;-70
2022/06/14 06:09:19;;;;;;;7.97;3.77;;;;;;;14.70;81.42;100450.47;1745340;81;25696;-71
2022/06/14 06:11:53;;;;;;;10.08;5.28;;;;;;;14.80;80.55;100445.19;1725758;83;26120;-70
2022/06/14 06:14:39;;;;;;;10.98;5.50;;;;;;;14.84;80.65;100451.55;1739299;82;25649;-70
2022/06/14 06:17:20;;;;;;;6.15;3.58;;;;;;;14.97;80.38;100447.75;1724530;83;28163;-71
2022/06/14 06:20:04;;;;;;;6.60;3.00;;;;;;;15.13;80.00;100448.70;1738255;82;25734;-69
2022/06/14 06:22:48;;;;;;;3.22;2.60;;;;;;;15.19;79.29;100457.48;1730351;82;25608;-70
2022/06/14 06:25:21;;;;;;;4.95;2.85;;;;;;;15.30;78.79;100455.11;1715809;82;25613;-70
2022/06/14 06:27:59;;;;;;;8.23;3.15;;;;;;;15.42;78.35;100452.98;1739834;82;25567;-71
2022/06/14 06:30:34;;;;;;;6.15;2.98;;;;;;;15.56;77.91;100450.75;1726134;82;27650;-69
2022/06/14 06:33:01;;;;;;;7.42;2.65;;;;;;;15.78;78.62;100456.92;1744674;82;27348;-69
2022/06/14 06:35:33;;;;;;;6.92;2.22;;;;;;;16.03;77.96;100454.42;1726075;83;25645;-69
2022/06/14 06:38:11;;;;;;;5.75;2.85;;;;;;;16.23;76.81;100454.65;1742689;82;25623;-69
2022/06/14 06:41:49;;;;;;;12.63;3.67;;;;;;;16.44;76.76;100460.73;1680977;85;25583;-70
2022/06/14 06:43:12;;;;;;;9.18;4.08;;;;;;;16.67;75.05;100462.16;1689907;84;27601;-70
2022/06/14 06:45:42;;;;;;;7.67;2.67;;;;;;;16.85;75.65;100459.41;1690080;84;25837;-68
2022/06/14 06:48:19;;;;;;;8.03;2.27;;;;;;;17.01;74.19;100460.84;1689873;84;26057;-69
2022/06/14 06:50:53;;;;;;;4.42;1.92;;;;;;;17.08;73.29;100469.81;1690130;84;25683;-69
2022/06/14 06:53:23;;;;;;;5.25;2.10;;;;;;;17.17;72.45;100463.59;1690069;84;25327;-69
2022/06/14 06:56:18;;;;;;;7.78;2.37;;;;;;;17.30;72.24;100464.34;1666498;84;27137;-69
2022/06/14 06:58:58;;;;;;;3.22;2.10;;;;;;;17.48;71.66;100459.33;1690065;84;25682;-69
2022/06/14 07:01:33;;;;;;;7.37;2.30;;;;;;;17.60;69.71;100452.98;1690128;84;25526;-69
2022/06/14 07:04:04;;;;;;;4.33;1.92;;;;;;;17.68;69.17;100460.22;1689968;84;25656;-69
2022/06/14 07:06:56;;;;;;;4.95;2.10;;;;;;;17.72;69.34;100456.98;1690026;84;25833;-69
2022/06/14 07:09:41;;;;;;;4.37;2.00;;;;;;;17.90;68.62;100460.98;1690013;84;27573;-68
2022/06/14 07:12:18;;;;;;;5.35;2.02;;;;;;;18.07;68.49;100451.61;1689853;84;25743;-69
2022/06/14 07:14:59;;;;;;;5.33;1.77;;;;;;;18.31;67.81;100451.16;1690066;84;25464;-69
2022/06/14 07:17:40;;;;;;;6.72;1.80;;;;;;;18.54;67.18;100447.17;1705799;82;26290;-69
2022/06/14 07:20:15;;;;;;;3.47;1.50;;;;;;;18.74;65.69;100456.75;1745716;82;25646;-69
2022/06/14 07:22:58;;;;;;;5.95;1.60;;;;;;;18.79;64.87;100462.73;1745595;82;27545;-69
2022/06/14 07:25:36;;;;;;;6.35;1.87;;;;;;;18.79;63.49;100456.47;1746870;81;25571;-69
2022/06/14 07:28:16;;;;;;;7.22;2.67;;;;;;;18.83;63.68;100458.72;1728703;82;25417;-69
2022/06/14 07:30:57;;;;;;;8.05;2.20;;;;;;;18.96;62.99;100456.05;1761613;81;26368;-69
2022/06/14 07:33:26;;;;;;;5.03;2.05;;;;;;;19.14;62.63;100450.14;1731074;82;25722;-68
2022/06/14 07:35:59;;;;;;;6.95;1.80;;;;;;;19.16;62.33;100454.67;1761414;81;28158;-69
2022/06/14 07:38:43;;;;;;;7.15;1.90;;;;;;;19.10;61.82;100448.67;1724197;82;25777;-69
2022/06/14 07:41:30;;;;;;;7.20;3.55;;;;;;;19.20;62.56;100455.52;1760805;81;25789;-69
2022/06/14 07:44:26;;;;;;;4.58;2.17;;;;;;;19.21;62.22;100448.30;1747054;81;25661;-70
2022/06/14 07:47:28;;;;;;;3.87;1.60;;;;;;;19.33;62.56;100457.53;1792902;80;25229;-69
2022/06/14 07:50:08;;;;;;;4.67;1.52;;;;;;;19.54;61.86;100451.02;1760354;81;27431;-70
2022/06/14 07:52:43;;;;;;;6.05;1.95;;;;;;;19.71;59.67;100449.73;1781647;80;25758;-70
2022/06/14 07:55:20;;;;;;;4.62;1.70;;;;;;;19.79;59.73;100457.55;1727943;82;25713;-70
2022/06/14 07:57:51;;;;;;;4.28;1.90;;;;;;;19.86;58.15;100456.28;1761586;81;25622;-70
2022/06/14 08:03:38;;;;;;;3.83;1.50;;;;;;;19.80;58.09;100459.70;1753296;81;27487;-69
2022/06/14 08:06:13;;;;;;;4.83;1.40;;;;;;;19.73;58.18;100457.05;1753460;81;25616;-70
2022/06/14 08:08:55;;;;;;;1.85;1.52;;;;;;;19.89;57.10;100443.20;1753195;81;25706;-70
2022/06/14 08:11:32;;;;;;;3.30;1.60;;;;;;;20.07;57.60;100448.16;1705287;84;25544;-67
2022/06/14 08:14:07;;;;;;;5.65;1.67;;;;;;;20.38;57.44;100448.42;1705498;84;26484;-67
2022/06/14 08:16:33;;;;;;;2.40;1.30;;;;;;;20.69;56.58;100453.36;1705894;84;27542;-69
2022/06/14 08:19:19;;;;;;;4.08;1.27;;;;;;;20.89;56.23;100438.28;1705781;84;25872;-68
2022/06/14 08:21:49;;;;;;;4.15;1.60;;;;;;;21.06;55.02;100441.58;1705914;84;25746;-68
2022/06/14 08:24:26;;;;;;;4.75;1.42;;;;;;;21.01;54.46;100446.86;1705836;84;25708;-69
2022/06/14 08:27:03;;;;;;;3.52;1.30;;;;;;;20.75;52.73;100444.97;1705867;84;25708;-69
2022/06/14 08:29:48;;;;;;;7.97;1.50;;;;;;;20.24;51.20;100440.75;1706259;84;27310;-70
2022/06/14 08:32:31;;;;;;;4.10;1.42;;;;;;;19.73;52.81;100446.07;1706171;84;25359;-70
2022/06/14 08:35:19;;;;;;;2.08;1.20;;;;;;;19.36;53.19;100453.48;1706258;84;25520;-69
2022/06/14 08:37:56;;;;;;;6.12;1.45;;;;;;;19.04;53.22;100450.92;1704980;84;25754;-68
2022/06/14 08:40:46;;;;;;;3.65;1.95;;;;;;;18.76;54.29;100450.33;1706239;84;25670;-66
2022/06/14 08:43:18;;;;;;;4.87;1.85;;;;;;;18.61;55.09;100445.12;1706128;84;28406;-68
2022/06/14 08:46:18;;;;;;;8.20;2.58;;;;;;;18.87;56.02;100443.74;1705829;84;25486;-67
2022/06/14 08:49:16;;;;;;;5.58;2.10;;;;;;;19.13;55.16;100438.36;1709843;83;25828;-68
2022/06/14 08:52:08;;;;;;;8.13;1.50;;;;;;;19.16;53.18;100442.34;1722155;83;25522;-67
2022/06/14 08:55:06;;;;;;;5.10;2.08;;;;;;;18.97;53.48;100452.16;1732768;81;25737;-71
2022/06/14 08:57:58;;;;;;;3.60;2.02;;;;;;;18.81;53.70;100456.89;1753405;81;27536;-66
2022/06/14 09:00:46;;;;;;;4.87;2.50;;;;;;;18.69;53.99;100458.41;1752319;81;25767;-67
2022/06/14 09:03:27;;;;;;;2.77;1.70;;;;;;;18.58;54.54;100454.88;1752137;81;25772;-67
2022/06/14 09:06:18;;;;;;;3.90;1.92;;;;;;;18.89;55.26;100463.35;1752586;81;26424;-67
2022/06/14 09:08:49;;;;;;;4.67;1.65;;;;;;;19.37;55.44;100457.00;1753254;81;25753;-67
2022/06/14 09:11:39;;;;;;;3.20;1.75;;;;;;;19.86;54.81;100451.38;1752936;81;27587;-67
2022/06/14 09:14:48;;;;;;;4.90;1.90;;;;;;;20.27;54.11;100461.20;1752167;81;25530;-66
2022/06/14 09:17:35;;;;;;;6.72;1.72;;;;;;;20.40;52.76;100463.13;1752972;81;25809;-65
2022/06/14 09:20:13;;;;;;;6.10;3.75;;;;;;;20.27;51.49;100457.09;1752997;81;25659;-65
2022/06/14 09:23:15;;;;;;;4.70;1.72;;;;;;;20.12;51.44;100460.20;1752912;81;25750;-65
2022/06/14 09:29:08;;;;;;;6.50;3.92;;;;;;;20.01;51.90;100460.64;1867610;76;25602;-67
2022/06/14 09:31:52;;;;;;;3.70;1.98;;;;;;;19.98;52.66;100468.23;1823889;78;25695;-67
2022/06/14 09:34:59;;;;;;;2.83;1.55;;;;;;;20.06;51.09;100461.11;1804190;77;28251;-68
2022/06/14 09:37:59;;;;;;;4.78;1.87;;;;;;;20.09;51.66;100465.86;1805130;79;26358;-66
2022/06/14 09:40:37;;;;;;;2.95;1.50;;;;;;;20.36;51.51;100456.22;1805189;79;25858;-66
2022/06/14 09:43:33;;;;;;;4.90;1.70;;;;;;;20.42;50.23;100464.36;1805153;79;25591;-67
2022/06/14 09:46:16;;;;;;;2.83;1.70;;;;;;;20.26;48.60;100463.73;1804261;79;25616;-65
2022/06/14 09:49:08;;;;;;;1.42;1.32;;;;;;;20.29;49.70;100458.88;1804017;79;27541;-69
2022/06/14 09:51:51;;;;;;;4.65;1.50;;;;;;;20.51;49.19;100444.84;1805161;79;25641;-67
2022/06/14 09:54:38;;;;;;;2.67;1.60;;;;;;;20.54;49.13;100453.72;1797859;79;25570;-70
2022/06/14 09:57:43;;;;;;;2.40;1.70;;;;;;;20.47;47.76;100464.03;1780284;78;25639;-67
2022/06/14 10:00:39;;;;;;;2.15;1.50;;;;;;;20.48;47.62;100449.70;1780026;80;25694;-67
2022/06/14 10:03:43;;;;;;;4.55;1.80;;;;;;;20.66;48.34;100454.88;1779746;80;27651;-69
2022/06/14 10:06:38;;;;;;;4.40;1.60;;;;;;;20.73;48.19;100447.91;1778965;80;25859;-68
2022/06/14 10:09:43;;;;;;;3.47;1.95;;;;;;;20.55;47.47;100456.69;1814260;78;25724;-67
2022/06/14 10:12:34;;;;;;;6.58;1.90;;;;;;;20.23;47.42;100469.98;1795642;78;25913;-66
2022/06/14 10:15:24;;;;;;;3.17;1.72;;;;;;;19.96;47.71;100474.09;1819734;78;25678;-68
2022/06/14 10:18:36;;;;;;;6.33;2.00;;;;;;;19.76;47.47;100456.31;1796450;78;28144;-66
2022/06/14 10:21:14;;;;;;;6.22;1.80;;;;;;;19.61;48.20;100464.07;1821048;78;25614;-69
2022/06/14 10:24:14;;;;;;;2.90;1.30;;;;;;;19.54;48.75;100468.86;1685491;84;25798;-68
2022/06/14 10:30:12;;;;;;;4.15;1.98;;;;;;;19.44;48.78;100476.91;1702240;82;25365;-68
2022/06/14 10:32:43;;;;;;;1.62;1.00;;;;;;;19.52;49.57;100467.06;1727733;82;27560;-67
2022/06/14 10:35:32;;;;;;;3.25;1.30;;;;;;;19.76;49.62;100471.41;1729826;82;26006;-67
2022/06/14 10:38:21;;;;;;;7.75;2.20;;;;;;;19.78;48.80;100473.23;1730878;82;25879;-66
2022/06/14 10:41:08;;;;;;;2.53;1.53;;;;;;;19.64;48.76;100470.20;1729142;82;25692;-66
2022/06/14 10:43:52;;;;;;;4.80;1.25;;;;;;;19.66;49.14;100472.59;1730441;82;25829;-68
2022/06/14 10:46:33;;;;;;;5.60;1.27;;;;;;;19.52;48.33;100465.69;1730327;82;27462;-65
2022/06/14 10:49:34;;;;;;;3.72;1.82;;;;;;;19.54;49.08;100464.73;1728936;82;25669;-66
2022/06/14 10:52:42;;;;;;;4.12;1.52;;;;;;;19.82;49.14;100458.19;1729578;82;25672;-67
2022/06/14 10:55:53;;;;;;;2.98;1.30;;;;;;;19.95;48.92;100447.23;1730100;82;25711;-65
2022/06/14 10:58:56;;;;;;;3.45;1.20;;;;;;;19.96;48.65;100439.78;1730290;82;25696;-66
2022/06/14 11:01:40;;;;;;;4.90;1.55;;;;;;;19.86;48.54;100450.80;1747747;81;28174;-62
2022/06/14 11:04:45;;;;;;;3.10;1.00;;;;;;;19.69;48.66;100452.06;1759361;80;25735;-63
2022/06/14 11:07:39;;;;;;;4.03;1.40;;;;;;;19.44;47.96;100472.80;1729325;83;25625;-64
2022/06/14 11:10:26;;;;;;;4.78;1.40;;;;;;;19.04;48.38;100470.11;1729224;83;25802;-64
2022/06/14 11:13:25;;;;;;;7.40;1.45;;;;;;;18.82;48.82;100464.78;1760297;80;26876;-64
2022/06/14 11:15:57;;;;;;;;;;;;;;;18.67;49.44;100469.14;1763805;81;27656;-65
2022/06/14 11:19:01;;;;;;;2.85;1.30;;;;;;;18.59;49.97;100464.69;1760951;81;25685;-64
2022/06/14 11:21:33;;;;;;;3.58;1.22;;;;;;;18.57;50.64;100462.86;1760738;81;25712;-64
2022/06/14 11:24:05;;;;;;;4.33;1.35;;;;;;;18.57;50.38;100462.08;1765358;80;25507;-63
2022/06/14 11:26:40;;;;;;;3.08;1.70;;;;;;;18.63;50.53;100466.92;1760476;81;25681;-65
2022/06/14 11:29:21;;;;;;;3.42;1.52;;;;;;;18.85;50.84;100471.51;1791744;80;28212;-72
2022/06/14 11:31:59;;;;;;;4.50;1.37;;;;;;;19.02;50.39;100473.80;1761351;81;25694;-72
2022/06/14 11:34:50;;;;;;;3.85;1.40;;;;;;;19.07;50.23;100463.13;1792096;80;25657;-69
2022/06/14 11:37:40;;;;;;;5.20;1.55;;;;;;;19.12;50.42;100452.42;1759254;81;25783;-74
2022/06/14 11:40:11;;;;;;;2.67;1.22;;;;;;;19.50;52.23;100457.63;1792499;80;25681;-76
2022/06/14 11:43:29;;;;;;;2.70;1.20;;;;;;;20.04;50.10;100455.20;1792507;80;28064;-70
2022/06/14 11:46:03;;;;;;;2.92;1.02;;;;;;;20.15;49.69;100460.84;1756053;81;25637;-71
2022/06/14 11:48:46;;;;;;;3.90;1.10;;;;;;;20.09;49.07;100452.14;1748248;82;25723;-70
2022/06/14 11:51:36;;;;;;;4.25;1.00;;;;;;;19.96;47.03;100449.38;1748552;80;25654;-71
2022/06/14 11:54:17;;;;;;;2.02;1.32;;;;;;;19.74;47.50;100457.83;1748838;82;25686;-70
2022/06/14 11:57:15;;;;;;;3.67;1.27;;;;;;;19.59;48.49;100469.92;1748328;82;27488;-68
2022/06/14 12:00:04;;;;;;;5.85;1.45;;;;;;;19.55;48.80;100468.30;1748302;82;25720;-69
2022/06/14 12:02:42;;;;;;;2.60;1.17;;;;;;;19.59;49.31;100460.91;1748669;82;25665;-71
2022/06/14 12:05:40;;;;;;;3.75;1.30;;;;;;;19.90;48.99;100463.20;1748517;81;25645;-70
2022/06/14 12:08:44;;;;;;;2.20;1.00;;;;;;;20.00;48.10;100461.79;1748444;82;25670;-74
2022/06/14 12:11:27;;;;;;;3.30;1.20;;;;;;;19.84;47.14;100464.09;1735454;82;27471;-69
2022/06/14 12:14:05;;;;;;;2.67;1.50;;;;;;;19.49;46.73;100476.02;1695161;84;25788;-68
2022/06/14 12:16:44;;;;;;;1.57;1.20;;;;;;;19.29;47.44;100484.89;1688863;84;25724;-68
2022/06/14 12:19:13;;;;;;;;;;;;;;;19.18;47.57;100472.33;1719249;83;25703;-68
2022/06/14 12:27:44;;;;;;;11.78;1.55;;;;;;;20.03;48.77;100472.03;1715418;83;25715;-70
2022/06/14 12:30:14;;;;;;;5.28;1.40;;;;;;;20.51;48.31;100463.48;1711467;83;25717;-67
2022/06/14 12:32:55;;;;;;;2.40;1.20;;;;;;;20.69;46.91;100469.25;1711563;83;25584;-68
2022/06/14 12:35:26;;;;;;;8.93;1.30;;;;;;;20.71;45.77;100474.38;1710554;83;25743;-68
2022/06/14 12:38:03;;;;;;;2.80;1.20;;;;;;;20.47;45.55;100472.28;1711573;83;27653;-68
2022/06/14 12:41:01;;;;;;;7.03;1.50;;;;;;;20.27;45.62;100474.94;1710012;83;25578;-69
2022/06/14 12:43:50;;;;;;;4.07;1.50;;;;;;;19.95;45.11;100489.78;1693281;84;25748;-68
2022/06/14 12:46:22;;;;;;;4.07;1.83;;;;;;;19.72;45.92;100496.61;1693207;84;25496;-70
2022/06/14 12:49:06;;;;;;;7.45;1.82;;;;;;;19.51;45.89;100497.60;1693578;84;26232;-71
2022/06/14 12:51:57;;;;;;;4.20;1.45;;;;;;;19.34;45.97;100490.08;1629482;86;27472;-71
2022/06/14 12:54:45;;;;;;;3.10;1.40;;;;;;;19.18;46.20;100499.75;1609494;89;25807;-71
2022/06/14 12:57:31;;;;;;;3.70;1.50;;;;;;;19.15;46.68;100501.05;1623419;88;25833;-72
2022/06/14 13:00:21;;;;;;;7.17;2.05;;;;;;;19.06;46.84;100496.38;1623417;87;25537;-72
2022/06/14 13:02:55;;;;;;;4.78;2.00;;;;;;;19.04;47.61;100500.86;1622695;87;25664;-70